Bardwell, Kentucky
Current Conditions -  °F | °C
As of 2:35 AM on Thursday 27 Nov 2014 (Local Time) from KCIR Reporting Station
Overcast Overcast  
Wind Chill: 32°   Ceiling: 1700
Heat Index: 39°   Visibility: 10mi
Dew Point: 33°   Wind: 12mph
Humidity: 80%   Direction: 310°NW
Pressure: 30.25"   Gusts: 16mph
Location:  36.87°N, 89.01°W
Report Text: KCIR 270835Z AUTO 31010G14KT 10SM OVC017 04/01 A3025 RMK AO2 T00380007
Loading
Personal Weather Stations






























Interactive Weather Map New forecast layout! Learn more

10-Day Weather Forecast

Advertisements
Track Severe Weather on mobile